MSSS/SAL METAR and TAF weather

Enter ICAO airport designator
Station Type Date Time Source
MSSS METAR 2019/07/17 17:50 UTC NOAA

MSSS 171750Z 07003KT 9999 FEW038 30/20 Q1016 A3001


Station Type Date Time Source
MSSS Decoded METAR 2019/07/17 17:50 UTC NOAA

San Salvador / Ilopango, El Salvador (MSSS) 13-42N 089-07W 621M
Jul 17, 2019 - 01:50 PM EDT / 2019.07.17 1750 UTC
Wind: from the ENE (070 degrees) at 3 MPH (3 KT):0
Visibility: greater than 7 mile(s):0
Sky conditions: mostly clear
Temperature: 86 F (30 C)
Dew Point: 68 F (20 C)
Relative Humidity: 55%
Pressure (altimeter): 30.01 in. Hg (1016 hPa)
ob: MSSS 171750Z 07003KT 9999 FEW038 30/20 Q1016 A3001
cycle: 18

Station Type Date Time Source
MSSS TAF 2019/07/17 18:36 UTC NOAA

TAF MSSS 171525Z 1718/1818 19010KT 9999 SCT030 FEW040CB TX30/1720Z TN20/1812Z
FM180000 35005KT 9999 BKN027 SCT037CB
TEMPO 1802/1804 5000 TSRA BKN023 SCT033CB
FM180400 00000KT 7000 RA BKN020
FM180700 9999 SCT017

Example: see airport list